createdAt,value
2016-07-16T00:00:51.844Z,1019.83
2016-07-16T00:01:51.840Z,1019.83
2016-07-16T00:02:51.833Z,1019.85
2016-07-16T00:03:51.831Z,1019.83
2016-07-16T00:04:51.825Z,1019.81
2016-07-16T00:05:51.818Z,1019.82
2016-07-16T00:06:51.813Z,1019.83
2016-07-16T00:07:51.807Z,1019.79
2016-07-16T00:08:51.804Z,1019.79
2016-07-16T00:09:51.799Z,1019.77
2016-07-16T00:10:51.793Z,1019.79
2016-07-16T00:11:51.787Z,1019.77
2016-07-16T00:12:51.784Z,1019.78
2016-07-16T00:13:51.779Z,1019.78
2016-07-16T00:14:51.773Z,1019.82
2016-07-16T00:15:51.766Z,1019.81
2016-07-16T00:16:51.762Z,1019.8
2016-07-16T00:17:51.758Z,1019.81
2016-07-16T00:18:51.750Z,1019.82
2016-07-16T00:19:51.746Z,1019.85
2016-07-16T00:20:51.741Z,1019.87
2016-07-16T00:21:51.735Z,1019.84
2016-07-16T00:22:51.731Z,1019.86
2016-07-16T00:23:51.726Z,1019.86
2016-07-16T00:24:51.719Z,1019.89
2016-07-16T00:25:51.715Z,1019.9
2016-07-16T00:26:51.708Z,1019.89
2016-07-16T00:27:51.709Z,1019.92
2016-07-16T00:28:51.701Z,1019.92
2016-07-16T00:29:51.695Z,1019.91
2016-07-16T00:30:51.689Z,1019.92
2016-07-16T00:31:51.685Z,1019.93
2016-07-16T00:32:51.679Z,1019.91
2016-07-16T00:33:51.673Z,1019.92
2016-07-16T00:34:51.670Z,1019.96
2016-07-16T00:35:51.662Z,1019.95
2016-07-16T00:36:51.657Z,1019.97
2016-07-16T00:37:51.650Z,1019.97
2016-07-16T00:38:51.646Z,1019.97
2016-07-16T00:39:51.642Z,1019.94
2016-07-16T00:40:51.634Z,1019.96
2016-07-16T00:41:51.629Z,1019.94
2016-07-16T00:42:51.625Z,1019.93
2016-07-16T00:43:51.622Z,1019.92
2016-07-16T00:44:51.614Z,1019.91
2016-07-16T00:45:51.608Z,1019.88
2016-07-16T00:46:51.605Z,1019.87
2016-07-16T00:47:51.598Z,1019.87
2016-07-16T00:48:51.592Z,1019.88
2016-07-16T00:49:51.588Z,1019.88
2016-07-16T00:50:51.583Z,1019.85
2016-07-16T00:51:51.576Z,1019.88
2016-07-16T00:52:51.570Z,1019.85
2016-07-16T00:53:51.568Z,1019.88
2016-07-16T00:54:51.560Z,1019.87
2016-07-16T00:55:51.554Z,1019.85
2016-07-16T00:56:51.549Z,1019.84
2016-07-16T00:57:51.598Z,1019.85
2016-07-16T00:58:51.541Z,1019.84
2016-07-16T00:59:51.866Z,1019.8
2016-07-16T01:00:51.529Z,1019.81
2016-07-16T01:01:51.523Z,1019.8
2016-07-16T01:02:51.516Z,1019.81
2016-07-16T01:03:51.511Z,1019.83
2016-07-16T01:04:51.507Z,1019.81
2016-07-16T01:05:51.503Z,1019.77
2016-07-16T01:06:51.495Z,1019.76
2016-07-16T01:07:51.689Z,1019.78
2016-07-16T01:09:51.478Z,1019.75
2016-07-16T01:10:51.473Z,1019.72
2016-07-16T01:11:51.470Z,1019.74
2016-07-16T01:12:51.463Z,1019.72
2016-07-16T01:13:51.458Z,1019.76
2016-07-16T01:14:51.452Z,1019.75
2016-07-16T01:15:52.198Z,1019.76
2016-07-16T01:16:51.443Z,1019.77
2016-07-16T01:17:52.086Z,1019.76
2016-07-16T01:18:51.432Z,1019.74
2016-07-16T01:19:51.426Z,1019.75
2016-07-16T01:20:51.419Z,1019.77
2016-07-16T01:21:51.413Z,1019.81
2016-07-16T01:22:51.409Z,1019.81
2016-07-16T01:23:51.402Z,1019.78
2016-07-16T01:24:51.395Z,1019.82
2016-07-16T01:25:51.391Z,1019.82
2016-07-16T01:26:51.386Z,1019.79
2016-07-16T01:27:51.382Z,1019.79
2016-07-16T01:28:51.376Z,1019.75
2016-07-16T01:29:51.370Z,1019.78
2016-07-16T01:30:51.363Z,1019.73
2016-07-16T01:31:51.355Z,1019.81
2016-07-16T01:32:51.351Z,1019.79
2016-07-16T01:33:51.346Z,1019.75
2016-07-16T01:34:51.341Z,1019.79
2016-07-16T01:35:51.335Z,1019.73
2016-07-16T01:36:51.330Z,1019.72
2016-07-16T01:37:51.324Z,1019.76
2016-07-16T01:38:51.323Z,1019.73
2016-07-16T01:39:51.313Z,1019.77
2016-07-16T01:40:51.307Z,1019.77
2016-07-16T01:41:51.301Z,1019.73
2016-07-16T01:42:51.296Z,1019.73
2016-07-16T01:43:51.287Z,1019.72
2016-07-16T01:44:51.283Z,1019.7
2016-07-16T01:45:51.279Z,1019.72
2016-07-16T01:46:51.273Z,1019.69
2016-07-16T01:47:51.267Z,1019.69
2016-07-16T01:48:51.262Z,1019.68
2016-07-16T01:49:51.255Z,1019.65
2016-07-16T01:50:51.250Z,1019.66
2016-07-16T01:51:51.243Z,1019.68
2016-07-16T01:52:51.237Z,1019.7
2016-07-16T01:53:51.232Z,1019.67
2016-07-16T01:54:51.227Z,1019.73
2016-07-16T01:55:51.229Z,1019.72
2016-07-16T01:56:51.217Z,1019.72
2016-07-16T01:57:51.209Z,1019.73
2016-07-16T01:58:51.204Z,1019.72
2016-07-16T01:59:51.196Z,1019.71
2016-07-16T02:00:51.192Z,1019.72
2016-07-16T02:01:51.184Z,1019.68
2016-07-16T02:02:51.183Z,1019.66
2016-07-16T02:03:51.177Z,1019.64
2016-07-16T02:04:51.169Z,1019.66
2016-07-16T02:05:51.161Z,1019.66
2016-07-16T02:06:51.156Z,1019.68
2016-07-16T02:07:51.153Z,1019.69
2016-07-16T02:08:51.146Z,1019.68
2016-07-16T02:09:51.150Z,1019.7
2016-07-16T02:10:51.134Z,1019.73
2016-07-16T02:11:51.130Z,1019.79
2016-07-16T02:12:51.132Z,1019.79
2016-07-16T02:13:51.118Z,1019.81
2016-07-16T02:14:51.110Z,1019.82
2016-07-16T02:15:51.106Z,1019.75
2016-07-16T02:16:51.100Z,1019.72
2016-07-16T02:17:52.538Z,1019.71
2016-07-16T02:18:51.219Z,1019.74
2016-07-16T02:19:51.548Z,1019.75
2016-07-16T02:20:51.075Z,1019.73
2016-07-16T02:21:51.070Z,1019.71
2016-07-16T02:22:51.066Z,1019.74
2016-07-16T02:23:51.058Z,1019.75
2016-07-16T02:25:51.048Z,1019.8
2016-07-16T02:26:51.042Z,1019.77
2016-07-16T02:27:51.033Z,1019.76
2016-07-16T02:28:51.027Z,1019.82
2016-07-16T02:29:51.022Z,1019.84
2016-07-16T02:30:51.020Z,1019.85
2016-07-16T02:32:51.007Z,1019.84
2016-07-16T02:33:51.348Z,1019.85
2016-07-16T02:34:50.992Z,1019.85
2016-07-16T02:35:50.987Z,1019.89
2016-07-16T02:36:50.984Z,1019.86
2016-07-16T02:37:50.976Z,1019.88
2016-07-16T02:38:50.970Z,1019.83
2016-07-16T02:39:50.964Z,1019.85
2016-07-16T02:40:50.957Z,1019.88
2016-07-16T02:41:50.952Z,1019.85
2016-07-16T02:42:50.946Z,1019.89
2016-07-16T02:43:50.940Z,1019.89
2016-07-16T02:44:50.932Z,1019.88
2016-07-16T02:45:50.927Z,1019.86
2016-07-16T02:46:50.926Z,1019.89
2016-07-16T02:47:50.915Z,1019.91
2016-07-16T02:48:50.911Z,1019.92
2016-07-16T02:49:50.911Z,1019.92
2016-07-16T02:50:50.898Z,1019.9
2016-07-16T02:51:50.892Z,1019.87
2016-07-16T02:52:50.885Z,1019.87
2016-07-16T02:53:50.881Z,1019.9
2016-07-16T02:54:50.875Z,1019.86
2016-07-16T02:55:50.867Z,1019.81
2016-07-16T02:56:50.862Z,1019.81
2016-07-16T02:57:50.860Z,1019.77
2016-07-16T02:58:50.849Z,1019.79
2016-07-16T02:59:50.843Z,1019.76
2016-07-16T03:00:50.836Z,1019.78
2016-07-16T03:01:50.836Z,1019.79
2016-07-16T03:02:50.825Z,1019.78
2016-07-16T03:03:50.820Z,1019.77
2016-07-16T03:04:50.814Z,1019.76
2016-07-16T03:05:50.806Z,1019.8
2016-07-16T03:06:50.801Z,1019.8
2016-07-16T03:07:50.795Z,1019.84
2016-07-16T03:08:50.788Z,1019.87
2016-07-16T03:09:50.782Z,1019.93
2016-07-16T03:10:50.777Z,1019.89
2016-07-16T03:11:50.768Z,1019.9
2016-07-16T03:12:50.765Z,1019.93
2016-07-16T03:13:50.756Z,1019.93
2016-07-16T03:14:50.749Z,1019.96
2016-07-16T03:15:50.745Z,1019.94
2016-07-16T03:16:50.741Z,1019.97
2016-07-16T03:17:50.734Z,1020.01
2016-07-16T03:18:50.728Z,1020
2016-07-16T03:19:50.720Z,1020.03
2016-07-16T03:20:50.716Z,1020.05
2016-07-16T03:21:50.707Z,1020.04
2016-07-16T03:22:50.704Z,1020.04
2016-07-16T03:23:50.696Z,1020.05
2016-07-16T03:24:50.690Z,1020.11
2016-07-16T03:25:50.686Z,1020.09
2016-07-16T03:26:50.680Z,1020.11
2016-07-16T03:27:50.673Z,1020.15
2016-07-16T03:28:50.665Z,1020.18
2016-07-16T03:29:50.659Z,1020.19
2016-07-16T03:30:50.667Z,1020.22
2016-07-16T03:31:50.650Z,1020.18
2016-07-16T03:32:50.642Z,1020.2
2016-07-16T03:33:50.637Z,1020.2
2016-07-16T03:34:50.629Z,1020.19
2016-07-16T03:35:50.623Z,1020.2
2016-07-16T03:36:50.619Z,1020.2
2016-07-16T03:37:50.612Z,1020.17
2016-07-16T03:38:50.605Z,1020.18
2016-07-16T03:39:50.599Z,1020.21
2016-07-16T03:40:51.894Z,1020.2
2016-07-16T03:41:50.588Z,1020.21
2016-07-16T03:42:51.267Z,1020.23
2016-07-16T03:43:50.576Z,1020.19
2016-07-16T03:44:51.633Z,1020.16
2016-07-16T03:45:51.237Z,1020.18
2016-07-16T03:46:50.559Z,1020.22
2016-07-16T03:47:50.552Z,1020.2
2016-07-16T03:48:50.550Z,1020.18
2016-07-16T03:49:50.541Z,1020.24
2016-07-16T03:50:50.536Z,1020.27
2016-07-16T03:51:50.532Z,1020.25
2016-07-16T03:52:50.527Z,1020.28
2016-07-16T03:53:50.523Z,1020.27
2016-07-16T03:55:50.516Z,1020.32
2016-07-16T03:56:50.611Z,1020.35
2016-07-16T03:57:50.507Z,1020.33
2016-07-16T03:58:50.502Z,1020.36
2016-07-16T03:59:50.499Z,1020.41
2016-07-16T04:00:50.496Z,1020.4
2016-07-16T04:01:50.495Z,1020.39
2016-07-16T04:02:50.490Z,1020.4
2016-07-16T04:03:50.490Z,1020.4
2016-07-16T04:04:50.487Z,1020.41
2016-07-16T04:05:50.482Z,1020.48
2016-07-16T04:06:50.482Z,1020.5
2016-07-16T04:07:50.479Z,1020.56
2016-07-16T04:08:50.480Z,1020.54
2016-07-16T04:09:50.476Z,1020.6
2016-07-16T04:10:50.475Z,1020.6
2016-07-16T04:11:50.478Z,1020.63
2016-07-16T04:12:50.475Z,1020.63
2016-07-16T04:13:50.475Z,1020.6
2016-07-16T04:14:50.472Z,1020.58
2016-07-16T04:15:50.475Z,1020.6
2016-07-16T04:16:50.472Z,1020.6
2016-07-16T04:17:50.473Z,1020.54
2016-07-16T04:18:50.474Z,1020.56
2016-07-16T04:19:50.474Z,1020.56
2016-07-16T04:20:50.478Z,1020.61
2016-07-16T04:21:50.480Z,1020.59
2016-07-16T04:22:50.479Z,1020.55
2016-07-16T04:23:50.481Z,1020.54
2016-07-16T04:24:50.485Z,1020.52
2016-07-16T04:25:50.485Z,1020.49
2016-07-16T04:26:50.490Z,1020.53
2016-07-16T04:27:50.491Z,1020.51
2016-07-16T04:28:50.494Z,1020.55
2016-07-16T04:29:50.497Z,1020.54
2016-07-16T04:30:50.502Z,1020.62
2016-07-16T04:31:50.506Z,1020.61
2016-07-16T04:32:50.508Z,1020.66
2016-07-16T04:33:50.515Z,1020.67
2016-07-16T04:34:50.519Z,1020.75
2016-07-16T04:35:50.523Z,1020.7
2016-07-16T04:36:50.529Z,1020.72
2016-07-16T04:37:50.534Z,1020.78
2016-07-16T04:38:50.537Z,1020.75
2016-07-16T04:39:50.544Z,1020.75
2016-07-16T04:40:50.549Z,1020.73
2016-07-16T04:41:50.555Z,1020.78
2016-07-16T04:42:50.562Z,1020.74
2016-07-16T04:43:50.569Z,1020.73
2016-07-16T04:44:50.576Z,1020.75
2016-07-16T04:45:50.584Z,1020.73
2016-07-16T04:46:50.590Z,1020.75
2016-07-16T04:47:50.599Z,1020.7
2016-07-16T04:48:50.608Z,1020.56
2016-07-16T04:49:50.614Z,1020.74
2016-07-16T04:50:50.624Z,1020.71
2016-07-16T04:52:50.637Z,1020.73
2016-07-16T04:53:50.649Z,1020.8
2016-07-16T04:54:50.657Z,1020.83
2016-07-16T04:55:50.683Z,1020.84
2016-07-16T04:56:50.680Z,1020.84
2016-07-16T04:57:50.683Z,1020.88
2016-07-16T04:58:50.691Z,1020.84
2016-07-16T04:59:50.703Z,1020.85
2016-07-16T05:00:50.710Z,1020.83
2016-07-16T05:01:51.722Z,1020.82
2016-07-16T05:02:50.943Z,1020.8
2016-07-16T05:03:51.954Z,1020.76
2016-07-16T05:05:50.758Z,1020.65
2016-07-16T05:06:50.770Z,1020.54
2016-07-16T05:07:50.779Z,1020.56
2016-07-16T05:09:51.249Z,1020.6
2016-07-16T05:10:50.808Z,1020.57
2016-07-16T05:11:50.819Z,1020.53
2016-07-16T05:12:50.829Z,1020.57
2016-07-16T05:13:50.940Z,1020.69
2016-07-16T05:14:50.849Z,1020.77
2016-07-16T05:15:50.862Z,1020.69
2016-07-16T05:17:51.083Z,1020.74
2016-07-16T05:18:50.891Z,1020.6
2016-07-16T05:19:50.901Z,1020.63
2016-07-16T05:20:50.912Z,1020.57
2016-07-16T05:21:50.922Z,1020.5
2016-07-16T05:22:50.931Z,1020.44
2016-07-16T05:23:50.941Z,1020.49
2016-07-16T05:24:50.951Z,1020.52
2016-07-16T05:25:50.963Z,1020.59
2016-07-16T05:26:50.972Z,1020.57
2016-07-16T05:27:50.982Z,1020.38
2016-07-16T05:28:50.992Z,1020.54
2016-07-16T05:29:50.999Z,1020.53
2016-07-16T05:30:51.009Z,1020.49
2016-07-16T05:31:51.021Z,1020.49
2016-07-16T05:32:51.029Z,1020.49
2016-07-16T05:33:51.038Z,1020.53
2016-07-16T05:34:51.051Z,1020.56
2016-07-16T05:35:51.058Z,1020.59
2016-07-16T05:36:51.070Z,1020.59
2016-07-16T05:37:51.081Z,1020.54
2016-07-16T05:38:51.091Z,1020.55
2016-07-16T05:39:51.099Z,1020.56
2016-07-16T05:40:51.112Z,1020.52
2016-07-16T05:41:51.122Z,1020.54
2016-07-16T05:42:51.131Z,1020.55
2016-07-16T05:43:51.144Z,1020.54
2016-07-16T05:44:51.154Z,1020.55
2016-07-16T05:45:51.166Z,1020.54
2016-07-16T05:46:51.176Z,1020.55
2016-07-16T05:47:51.185Z,1020.52
2016-07-16T05:50:51.220Z,1020.6
2016-07-16T05:51:51.231Z,1020.55
2016-07-16T05:52:51.241Z,1020.56
2016-07-16T05:53:51.252Z,1020.56
2016-07-16T05:54:51.264Z,1020.51
2016-07-16T05:55:51.278Z,1020.53
2016-07-16T05:56:51.288Z,1020.53
2016-07-16T05:57:51.302Z,1020.53
2016-07-16T05:58:51.311Z,1020.53
2016-07-16T06:00:51.334Z,1020.54
2016-07-16T06:01:51.348Z,1020.57
2016-07-16T06:02:51.358Z,1020.55
2016-07-16T06:03:51.372Z,1020.57
2016-07-16T06:04:51.386Z,1020.54
2016-07-16T06:05:51.396Z,1020.59
2016-07-16T06:06:51.409Z,1020.63
2016-07-16T06:07:51.421Z,1020.65
2016-07-16T06:08:51.435Z,1020.63
2016-07-16T06:09:51.449Z,1020.69
2016-07-16T06:10:51.461Z,1020.65
2016-07-16T06:11:51.474Z,1020.66
2016-07-16T06:12:51.486Z,1020.61
2016-07-16T06:13:51.499Z,1020.56
2016-07-16T06:14:51.513Z,1020.58
2016-07-16T06:15:51.530Z,1020.58
2016-07-16T06:16:51.691Z,1020.64
2016-07-16T06:17:51.556Z,1020.59
2016-07-16T06:18:52.371Z,1020.58
2016-07-16T06:19:51.584Z,1020.57
2016-07-16T06:20:51.601Z,1020.63
2016-07-16T06:21:51.613Z,1020.58
2016-07-16T06:22:51.630Z,1020.62
2016-07-16T06:23:51.645Z,1020.53
2016-07-16T06:24:51.658Z,1020.48
2016-07-16T06:25:52.091Z,1020.41
2016-07-16T06:26:51.687Z,1020.56
2016-07-16T06:27:51.703Z,1020.57
2016-07-16T06:28:51.717Z,1020.61
2016-07-16T06:29:51.734Z,1020.67
2016-07-16T06:30:51.750Z,1020.7
2016-07-16T06:31:51.763Z,1020.7
2016-07-16T06:32:51.778Z,1020.75
2016-07-16T06:33:51.794Z,1020.68
2016-07-16T06:34:51.811Z,1020.73
2016-07-16T06:35:51.822Z,1020.73
2016-07-16T06:36:51.838Z,1020.71
2016-07-16T06:37:51.856Z,1020.68
2016-07-16T06:38:51.868Z,1020.73
2016-07-16T06:39:51.885Z,1020.69
2016-07-16T06:40:51.902Z,1020.69
2016-07-16T06:41:51.918Z,1020.79
2016-07-16T06:42:51.934Z,1020.83
2016-07-16T06:43:51.947Z,1020.78
2016-07-16T06:44:51.966Z,1020.74
2016-07-16T06:45:51.980Z,1020.63
2016-07-16T06:46:52.001Z,1020.71
2016-07-16T06:47:52.014Z,1020.73
2016-07-16T06:48:52.029Z,1020.73
2016-07-16T06:49:52.045Z,1020.81
2016-07-16T06:50:52.063Z,1020.8
2016-07-16T06:51:52.079Z,1020.83
2016-07-16T06:52:52.096Z,1020.81
2016-07-16T06:53:52.110Z,1020.78
2016-07-16T06:54:52.127Z,1020.8
2016-07-16T06:55:52.144Z,1020.79
2016-07-16T06:56:52.160Z,1020.72
2016-07-16T06:57:52.178Z,1020.69
2016-07-16T06:58:52.195Z,1020.73
2016-07-16T06:59:52.213Z,1020.75
2016-07-16T07:00:52.228Z,1020.75
2016-07-16T07:01:52.246Z,1020.74
2016-07-16T07:02:52.264Z,1020.72
2016-07-16T07:03:52.283Z,1020.75
2016-07-16T07:04:52.297Z,1020.74
2016-07-16T07:05:52.317Z,1020.72
2016-07-16T07:06:52.333Z,1020.73
2016-07-16T07:07:52.353Z,1020.77
2016-07-16T07:08:52.371Z,1020.76
2016-07-16T07:09:52.389Z,1020.77
2016-07-16T07:10:52.407Z,1020.81
2016-07-16T07:11:52.424Z,1020.78
2016-07-16T07:12:52.445Z,1020.78
2016-07-16T07:13:52.463Z,1020.79
2016-07-16T07:14:52.482Z,1020.79
2016-07-16T07:15:52.499Z,1020.78
2016-07-16T07:16:52.521Z,1020.71
2016-07-16T07:17:52.538Z,1020.76
2016-07-16T07:18:52.559Z,1020.85
2016-07-16T07:19:52.578Z,1020.77
2016-07-16T07:20:52.597Z,1020.8
2016-07-16T07:21:52.615Z,1020.82
2016-07-16T07:22:52.636Z,1020.8
2016-07-16T07:23:52.655Z,1020.8
2016-07-16T07:24:52.673Z,1020.85
2016-07-16T07:25:52.694Z,1020.88
2016-07-16T07:26:52.714Z,1020.83
2016-07-16T07:27:52.734Z,1020.82
2016-07-16T07:28:53.462Z,1020.88
2016-07-16T07:30:52.794Z,1020.97
2016-07-16T07:31:52.813Z,1021.05
2016-07-16T07:32:52.833Z,1021.14
2016-07-16T07:33:52.853Z,1021.3
2016-07-16T07:34:52.876Z,1021.38
2016-07-16T07:35:52.893Z,1021.4
2016-07-16T07:36:52.916Z,1021.38
2016-07-16T07:37:52.936Z,1021.35
2016-07-16T07:38:52.953Z,1021.23
2016-07-16T07:39:53.424Z,1021.18
2016-07-16T07:40:52.994Z,1021.15
2016-07-16T07:41:53.016Z,1021.22
2016-07-16T07:42:53.037Z,1021.24
2016-07-16T07:43:53.056Z,1021.22
2016-07-16T07:44:53.375Z,1021.19
2016-07-16T07:45:53.096Z,1021.17
2016-07-16T07:46:53.116Z,1021.12
2016-07-16T07:48:53.608Z,1021.09
2016-07-16T07:49:53.176Z,1021.08
2016-07-16T07:50:53.197Z,1021.06
2016-07-16T07:51:53.216Z,1021.06
2016-07-16T07:52:53.236Z,1021.06
2016-07-16T07:53:53.256Z,1021.05
2016-07-16T07:54:53.277Z,1021.18
2016-07-16T07:55:53.295Z,1021.22
2016-07-16T07:56:53.316Z,1021.05
2016-07-16T07:57:53.340Z,1021.33
2016-07-16T07:58:53.359Z,1021.41
2016-07-16T07:59:53.384Z,1021.68
2016-07-16T08:00:53.396Z,1020.73
2016-07-16T08:01:53.416Z,1021.82
2016-07-16T08:02:53.438Z,1022.21
2016-07-16T08:03:53.459Z,1020.44
2016-07-16T08:05:53.496Z,1022.13
2016-07-16T08:06:53.514Z,1022.32
2016-07-16T08:07:53.534Z,1022
2016-07-16T08:09:53.574Z,1022.21
2016-07-16T08:12:53.628Z,1022.39
2016-07-16T08:13:53.646Z,1022.44
2016-07-16T08:14:53.665Z,1022.35
2016-07-16T08:15:53.683Z,1022.33
2016-07-16T08:16:53.703Z,1022.19
2016-07-16T08:17:53.721Z,1022.2
2016-07-16T08:18:53.741Z,1022.1
2016-07-16T08:19:53.760Z,1022.01
2016-07-16T08:20:53.780Z,1022.03
2016-07-16T08:21:53.800Z,1022.03
2016-07-16T08:22:53.818Z,1022.03
2016-07-16T08:23:53.839Z,1021.95
2016-07-16T08:24:53.858Z,1021.97
2016-07-16T08:25:53.878Z,1021.93
2016-07-16T08:26:53.899Z,1021.95
2016-07-16T08:27:53.922Z,1021.97
2016-07-16T08:28:53.941Z,1021.73
2016-07-16T08:29:53.960Z,1020.51
2016-07-16T08:30:53.980Z,1020.64
2016-07-16T08:31:54.000Z,1021.77
2016-07-16T08:32:54.019Z,1021.75
2016-07-16T08:33:54.042Z,1021.54
2016-07-16T08:34:54.062Z,1021.35
2016-07-16T08:35:54.080Z,1021.33
2016-07-16T08:36:54.098Z,1020.68
2016-07-16T08:37:54.120Z,1020.75
2016-07-16T08:38:54.138Z,1020.74
2016-07-16T08:39:54.155Z,1020.73
2016-07-16T08:40:54.173Z,1021.03
2016-07-16T08:41:54.194Z,1020.51
2016-07-16T08:42:54.210Z,1020.43
2016-07-16T08:43:54.227Z,1020.78
2016-07-16T08:44:54.247Z,1020.57
2016-07-16T08:45:54.263Z,1021.16
2016-07-16T08:46:55.643Z,1021.02
2016-07-16T08:47:54.295Z,1021
2016-07-16T08:48:54.312Z,1020.31
2016-07-16T08:49:54.327Z,1020.24
2016-07-16T08:50:54.344Z,1020.2
2016-07-16T08:51:54.360Z,1020.18
2016-07-16T08:52:54.373Z,1020.15
2016-07-16T08:53:54.388Z,1020.14
2016-07-16T08:54:54.403Z,1020.17
2016-07-16T08:55:54.417Z,1020.23
2016-07-16T08:56:55.542Z,1020.25
2016-07-16T08:57:54.767Z,1020.25
2016-07-16T08:58:55.845Z,1020.13
2016-07-16T08:59:54.468Z,1020.18
2016-07-16T09:00:54.481Z,1020.19
2016-07-16T09:01:54.494Z,1020.28
2016-07-16T09:02:54.505Z,1020.31
2016-07-16T09:03:55.268Z,1020.32
2016-07-16T09:04:54.528Z,1020.25
2016-07-16T09:05:54.540Z,1020.07
2016-07-16T09:06:54.551Z,1020.08
2016-07-16T09:07:54.564Z,1020.15
2016-07-16T09:08:54.574Z,1020.18
2016-07-16T09:09:54.583Z,1020.3
2016-07-16T09:10:54.593Z,1020.27
2016-07-16T09:11:54.603Z,1020.34
2016-07-16T09:12:54.613Z,1020.38
2016-07-16T09:13:54.625Z,1020.27
2016-07-16T09:14:54.633Z,1020.05
2016-07-16T09:15:54.643Z,1019.97
2016-07-16T09:16:54.654Z,1020.01
2016-07-16T09:17:54.661Z,1020.04
2016-07-16T09:18:54.670Z,1020.06
2016-07-16T09:19:54.678Z,1020.08
2016-07-16T09:20:54.688Z,1019.99
2016-07-16T09:21:54.697Z,1019.95
2016-07-16T09:22:54.706Z,1019.95
2016-07-16T09:23:54.716Z,1019.85
2016-07-16T09:24:54.721Z,1019.83
2016-07-16T09:25:54.731Z,1019.74
2016-07-16T09:26:54.737Z,1019.74
2016-07-16T09:27:54.746Z,1019.76
2016-07-16T09:28:54.756Z,1019.81
2016-07-16T09:30:54.771Z,1019.77
2016-07-16T09:31:54.780Z,1019.67
2016-07-16T09:32:54.787Z,1019.69
2016-07-16T09:33:54.793Z,1019.69
2016-07-16T09:34:54.799Z,1019.68
2016-07-16T09:35:54.807Z,1019.83
2016-07-16T09:36:54.815Z,1019.9
2016-07-16T09:37:54.820Z,1019.96
2016-07-16T09:38:54.827Z,1019.96
2016-07-16T09:39:54.834Z,1019.93
2016-07-16T09:40:54.844Z,1020.04
2016-07-16T09:41:54.847Z,1020.09
2016-07-16T09:42:54.857Z,1020.03
2016-07-16T09:43:54.861Z,1020.04
2016-07-16T09:44:54.867Z,1020.13
2016-07-16T09:45:54.874Z,1020.17
2016-07-16T09:46:54.882Z,1020.13
2016-07-16T09:47:54.889Z,1020.05
2016-07-16T09:48:54.893Z,1020.01
2016-07-16T09:49:54.899Z,1019.95
2016-07-16T09:50:54.907Z,1019.89
2016-07-16T09:51:54.915Z,1019.9
2016-07-16T09:52:54.919Z,1019.88
2016-07-16T09:53:54.926Z,1019.96
2016-07-16T09:54:54.933Z,1019.83
2016-07-16T09:55:54.940Z,1019.75
2016-07-16T09:56:54.946Z,1019.7
2016-07-16T09:57:54.954Z,1019.64
2016-07-16T09:58:54.962Z,1019.66
2016-07-16T09:59:54.966Z,1019.63
2016-07-16T10:00:54.973Z,1019.57
2016-07-16T10:01:54.981Z,1019.55
2016-07-16T10:02:54.986Z,1019.52
2016-07-16T10:03:54.994Z,1019.54
2016-07-16T10:04:54.999Z,1019.48
2016-07-16T10:05:55.007Z,1019.51
2016-07-16T10:06:55.013Z,1019.53
2016-07-16T10:07:55.018Z,1019.54
2016-07-16T10:08:55.027Z,1019.53
2016-07-16T10:09:55.031Z,1019.53
2016-07-16T10:10:55.039Z,1019.56
2016-07-16T10:11:55.045Z,1019.53
2016-07-16T10:12:55.049Z,1019.53
2016-07-16T10:13:55.061Z,1019.45
2016-07-16T10:14:55.413Z,1019.52
2016-07-16T10:15:55.159Z,1019.48
2016-07-16T10:16:55.628Z,1019.4
2016-07-16T10:17:56.033Z,1019.38
2016-07-16T10:18:55.089Z,1019.33
2016-07-16T10:19:55.093Z,1019.31
2016-07-16T10:20:55.099Z,1019.29
2016-07-16T10:22:55.109Z,1019.29
2016-07-16T10:23:55.419Z,1019.28
2016-07-16T10:24:55.123Z,1019.25
2016-07-16T10:25:55.125Z,1019.24
2016-07-16T10:26:55.140Z,1019.28
2016-07-16T10:27:55.141Z,1019.22
2016-07-16T10:28:55.293Z,1019.2
2016-07-16T10:29:55.151Z,1019.14
2016-07-16T10:30:55.154Z,1019.15
2016-07-16T10:31:55.158Z,1019.1
2016-07-16T10:32:55.166Z,1019.16
2016-07-16T10:33:55.171Z,1019.18
2016-07-16T10:34:55.177Z,1019.22
2016-07-16T10:35:55.182Z,1019.22
2016-07-16T10:36:55.184Z,1019.18
2016-07-16T10:37:55.190Z,1019.2
2016-07-16T10:38:55.199Z,1019.2
2016-07-16T10:39:55.202Z,1019.19
2016-07-16T10:40:55.205Z,1019.19
2016-07-16T10:41:55.209Z,1019.15
2016-07-16T10:42:55.219Z,1019.13
2016-07-16T10:43:55.218Z,1019.17
2016-07-16T10:44:55.226Z,1019.2
2016-07-16T10:45:55.229Z,1019.18
2016-07-16T10:46:55.235Z,1019.11
2016-07-16T10:47:55.238Z,1019.15
2016-07-16T10:48:55.242Z,1019.15
2016-07-16T10:49:55.250Z,1019.16
2016-07-16T10:50:55.251Z,1019.13
2016-07-16T10:51:55.259Z,1019.14
2016-07-16T10:52:55.260Z,1019.15
2016-07-16T10:53:55.267Z,1019.19
2016-07-16T10:54:55.270Z,1019.31
2016-07-16T10:55:55.275Z,1019.49
2016-07-16T10:56:55.281Z,1019.58
2016-07-16T10:57:55.284Z,1019.61
2016-07-16T10:58:55.290Z,1019.49
2016-07-16T10:59:55.296Z,1019.4
2016-07-16T11:00:55.298Z,1019.29
2016-07-16T11:01:55.303Z,1019.18
2016-07-16T11:02:55.308Z,1019.22
2016-07-16T11:03:55.312Z,1019.22
2016-07-16T11:04:55.317Z,1019.31
2016-07-16T11:05:55.324Z,1019.39
2016-07-16T11:06:55.329Z,1019.48
2016-07-16T11:07:55.332Z,1019.52
2016-07-16T11:08:55.337Z,1019.47
2016-07-16T11:09:55.344Z,1019.32
2016-07-16T11:10:55.347Z,1019.25
2016-07-16T11:11:55.354Z,1019.3
2016-07-16T11:12:55.359Z,1019.47
2016-07-16T11:13:55.361Z,1019.59
2016-07-16T11:14:55.367Z,1019.52
2016-07-16T11:15:55.373Z,1019.37
2016-07-16T11:16:55.380Z,1019.12
2016-07-16T11:17:55.385Z,1018.94
2016-07-16T11:18:55.392Z,1018.98
2016-07-16T11:19:55.395Z,1018.9
2016-07-16T11:20:55.401Z,1018.82
2016-07-16T11:21:55.407Z,1018.89
2016-07-16T11:22:55.412Z,1018.84
2016-07-16T11:23:56.828Z,1018.83
2016-07-16T11:24:55.423Z,1018.84
2016-07-16T11:25:55.428Z,1018.83
2016-07-16T11:26:55.434Z,1018.74
2016-07-16T11:27:55.438Z,1018.79
2016-07-16T11:28:55.445Z,1018.76
2016-07-16T11:29:55.450Z,1018.64
2016-07-16T11:30:55.458Z,1018.79
2016-07-16T11:31:55.461Z,1018.79
2016-07-16T11:32:55.467Z,1018.72
2016-07-16T11:33:55.708Z,1018.69
2016-07-16T11:34:55.476Z,1018.69
2016-07-16T11:35:55.483Z,1018.71
2016-07-16T11:36:55.488Z,1018.65
2016-07-16T11:37:55.498Z,1018.67
2016-07-16T11:38:55.499Z,1018.65
2016-07-16T11:39:55.654Z,1018.66
2016-07-16T11:40:55.511Z,1018.69
2016-07-16T11:42:55.521Z,1018.69
2016-07-16T11:43:55.524Z,1018.66
2016-07-16T11:44:55.530Z,1018.61
2016-07-16T11:45:55.535Z,1018.65
2016-07-16T11:46:55.539Z,1018.62
2016-07-16T11:47:55.546Z,1018.63
2016-07-16T11:48:55.549Z,1018.65
2016-07-16T11:49:55.553Z,1018.67
2016-07-16T11:50:55.560Z,1018.55
2016-07-16T11:51:55.564Z,1018.54
2016-07-16T11:52:55.571Z,1018.53
2016-07-16T11:53:55.572Z,1018.52
2016-07-16T11:54:55.577Z,1018.54
2016-07-16T11:55:55.584Z,1018.67
2016-07-16T11:56:55.587Z,1018.8
2016-07-16T11:57:55.591Z,1018.88
2016-07-16T11:58:55.597Z,1018.84
2016-07-16T11:59:55.602Z,1018.82
2016-07-16T12:00:55.606Z,1018.85
2016-07-16T12:01:55.613Z,1018.83
2016-07-16T12:02:55.616Z,1018.69
2016-07-16T12:03:55.621Z,1018.67
2016-07-16T12:04:55.625Z,1018.67
2016-07-16T12:05:55.631Z,1018.79
2016-07-16T12:06:55.635Z,1018.73
2016-07-16T12:07:55.642Z,1018.7
2016-07-16T12:08:55.645Z,1018.64
2016-07-16T12:09:55.650Z,1018.64
2016-07-16T12:10:55.658Z,1018.59
2016-07-16T12:11:55.659Z,1018.6
2016-07-16T12:12:55.664Z,1018.59
2016-07-16T12:13:55.671Z,1018.47
2016-07-16T12:14:55.678Z,1018.34
2016-07-16T12:15:55.681Z,1018.28
2016-07-16T12:16:55.686Z,1018.29
2016-07-16T12:17:55.692Z,1018.26
2016-07-16T12:18:55.697Z,1018.32
2016-07-16T12:19:55.701Z,1018.25
2016-07-16T12:20:55.709Z,1018.21
2016-07-16T12:21:55.714Z,1018.17
2016-07-16T12:22:55.719Z,1018.2
2016-07-16T12:23:55.756Z,1018.19
2016-07-16T12:24:55.727Z,1018.15
2016-07-16T12:25:55.731Z,1018.14
2016-07-16T12:26:55.737Z,1018.13
2016-07-16T12:27:55.743Z,1018.14
2016-07-16T12:28:55.747Z,1018.08